sensor_id;sensor_type;location;lat;lon;timestamp;P1;durP1;ratioP1;P2;durP2;ratioP2
72493;SDS011;60520;49.182;-0.348;2023-03-19T00:01:54;5.22;;;4.13;;
72493;SDS011;60520;49.182;-0.348;2023-03-19T00:04:21;4.68;;;3.80;;
72493;SDS011;60520;49.182;-0.348;2023-03-19T00:06:49;5.07;;;3.55;;
72493;SDS011;60520;49.182;-0.348;2023-03-19T00:09:16;6.05;;;3.72;;
72493;SDS011;60520;49.182;-0.348;2023-03-19T00:11:44;5.45;;;3.65;;
72493;SDS011;60520;49.182;-0.348;2023-03-19T00:14:12;4.85;;;3.65;;
72493;SDS011;60520;49.182;-0.348;2023-03-19T00:16:40;4.97;;;3.67;;
72493;SDS011;60520;49.182;-0.348;2023-03-19T00:19:07;5.65;;;3.92;;
72493;SDS011;60520;49.182;-0.348;2023-03-19T00:21:35;5.55;;;3.63;;
72493;SDS011;60520;49.182;-0.348;2023-03-19T00:24:02;5.93;;;4.10;;
72493;SDS011;60520;49.182;-0.348;2023-03-19T00:26:29;5.18;;;3.75;;
72493;SDS011;60520;49.182;-0.348;2023-03-19T00:28:57;5.10;;;3.47;;
72493;SDS011;60520;49.182;-0.348;2023-03-19T00:31:24;4.55;;;3.58;;
72493;SDS011;60520;49.182;-0.348;2023-03-19T00:33:53;5.53;;;3.63;;
72493;SDS011;60520;49.182;-0.348;2023-03-19T00:36:22;5.13;;;3.33;;
72493;SDS011;60520;49.182;-0.348;2023-03-19T00:38:49;4.90;;;3.78;;
72493;SDS011;60520;49.182;-0.348;2023-03-19T00:41:17;4.47;;;3.70;;
72493;SDS011;60520;49.182;-0.348;2023-03-19T00:43:44;4.88;;;3.50;;
72493;SDS011;60520;49.182;-0.348;2023-03-19T00:46:12;5.15;;;3.33;;
72493;SDS011;60520;49.182;-0.348;2023-03-19T00:48:39;5.85;;;3.67;;
72493;SDS011;60520;49.182;-0.348;2023-03-19T00:51:08;4.72;;;3.50;;
72493;SDS011;60520;49.182;-0.348;2023-03-19T00:53:36;5.18;;;3.50;;
72493;SDS011;60520;49.182;-0.348;2023-03-19T00:56:04;5.10;;;3.45;;
72493;SDS011;60520;49.182;-0.348;2023-03-19T00:58:31;5.85;;;3.50;;
72493;SDS011;60520;49.182;-0.348;2023-03-19T01:00:58;4.93;;;3.45;;
72493;SDS011;60520;49.182;-0.348;2023-03-19T01:03:26;5.38;;;3.35;;
72493;SDS011;60520;49.182;-0.348;2023-03-19T01:05:53;4.60;;;3.35;;
72493;SDS011;60520;49.182;-0.348;2023-03-19T01:08:21;4.32;;;3.25;;
72493;SDS011;60520;49.182;-0.348;2023-03-19T01:10:48;5.38;;;3.63;;
72493;SDS011;60520;49.182;-0.348;2023-03-19T01:13:15;4.80;;;3.33;;
72493;SDS011;60520;49.182;-0.348;2023-03-19T01:15:42;3.88;;;3.08;;
72493;SDS011;60520;49.182;-0.348;2023-03-19T01:18:10;4.40;;;3.33;;
72493;SDS011;60520;49.182;-0.348;2023-03-19T01:20:38;5.57;;;3.38;;
72493;SDS011;60520;49.182;-0.348;2023-03-19T01:23:06;4.55;;;2.92;;
72493;SDS011;60520;49.182;-0.348;2023-03-19T01:25:35;6.20;;;3.33;;
72493;SDS011;60520;49.182;-0.348;2023-03-19T01:28:02;4.45;;;2.95;;
72493;SDS011;60520;49.182;-0.348;2023-03-19T01:30:29;4.28;;;3.22;;
72493;SDS011;60520;49.182;-0.348;2023-03-19T01:32:56;3.80;;;3.20;;
72493;SDS011;60520;49.182;-0.348;2023-03-19T01:35:23;5.18;;;3.50;;
72493;SDS011;60520;49.182;-0.348;2023-03-19T01:37:50;4.15;;;3.20;;
72493;SDS011;60520;49.182;-0.348;2023-03-19T01:40:17;3.90;;;2.90;;
72493;SDS011;60520;49.182;-0.348;2023-03-19T01:42:55;5.00;;;3.17;;
72493;SDS011;60520;49.182;-0.348;2023-03-19T01:45:28;4.30;;;3.10;;
72493;SDS011;60520;49.182;-0.348;2023-03-19T01:47:56;4.40;;;3.47;;
72493;SDS011;60520;49.182;-0.348;2023-03-19T01:50:24;3.78;;;3.10;;
72493;SDS011;60520;49.182;-0.348;2023-03-19T01:52:53;4.68;;;3.25;;
72493;SDS011;60520;49.182;-0.348;2023-03-19T01:55:20;4.43;;;3.20;;
72493;SDS011;60520;49.182;-0.348;2023-03-19T01:57:47;5.28;;;3.30;;
72493;SDS011;60520;49.182;-0.348;2023-03-19T02:00:16;4.90;;;3.10;;
72493;SDS011;60520;49.182;-0.348;2023-03-19T02:02:43;4.25;;;3.33;;
72493;SDS011;60520;49.182;-0.348;2023-03-19T02:05:13;5.28;;;3.03;;
72493;SDS011;60520;49.182;-0.348;2023-03-19T02:07:49;4.15;;;2.92;;
72493;SDS011;60520;49.182;-0.348;2023-03-19T02:10:16;4.95;;;3.20;;
72493;SDS011;60520;49.182;-0.348;2023-03-19T02:12:43;4.07;;;2.90;;
72493;SDS011;60520;49.182;-0.348;2023-03-19T02:15:10;5.47;;;3.00;;
72493;SDS011;60520;49.182;-0.348;2023-03-19T02:17:39;4.35;;;2.90;;
72493;SDS011;60520;49.182;-0.348;2023-03-19T02:20:07;3.97;;;3.08;;
72493;SDS011;60520;49.182;-0.348;2023-03-19T02:22:37;4.63;;;3.03;;
72493;SDS011;60520;49.182;-0.348;2023-03-19T02:25:08;4.50;;;2.63;;
72493;SDS011;60520;49.182;-0.348;2023-03-19T02:27:38;4.43;;;2.70;;
72493;SDS011;60520;49.182;-0.348;2023-03-19T02:30:18;4.22;;;2.90;;
72493;SDS011;60520;49.182;-0.348;2023-03-19T02:32:46;4.32;;;3.00;;
72493;SDS011;60520;49.182;-0.348;2023-03-19T02:35:13;4.47;;;2.90;;
72493;SDS011;60520;49.182;-0.348;2023-03-19T02:37:40;6.20;;;3.20;;
72493;SDS011;60520;49.182;-0.348;2023-03-19T02:40:07;5.40;;;3.00;;
72493;SDS011;60520;49.182;-0.348;2023-03-19T02:42:38;5.63;;;2.85;;
72493;SDS011;60520;49.182;-0.348;2023-03-19T02:45:06;3.58;;;2.75;;
72493;SDS011;60520;49.182;-0.348;2023-03-19T02:47:33;4.63;;;2.75;;
72493;SDS011;60520;49.182;-0.348;2023-03-19T02:50:00;5.00;;;2.90;;
72493;SDS011;60520;49.182;-0.348;2023-03-19T02:52:28;4.63;;;3.13;;
72493;SDS011;60520;49.182;-0.348;2023-03-19T02:54:55;3.80;;;2.60;;
72493;SDS011;60520;49.182;-0.348;2023-03-19T02:57:22;3.72;;;2.60;;
72493;SDS011;60520;49.182;-0.348;2023-03-19T02:59:50;4.68;;;2.53;;
72493;SDS011;60520;49.182;-0.348;2023-03-19T03:02:17;4.32;;;2.97;;
72493;SDS011;60520;49.182;-0.348;2023-03-19T03:04:45;5.28;;;3.13;;
72493;SDS011;60520;49.182;-0.348;2023-03-19T03:07:12;5.45;;;2.70;;
72493;SDS011;60520;49.182;-0.348;2023-03-19T03:09:39;3.90;;;2.78;;
72493;SDS011;60520;49.182;-0.348;2023-03-19T03:12:06;3.80;;;2.80;;
72493;SDS011;60520;49.182;-0.348;2023-03-19T03:14:33;4.60;;;2.90;;
72493;SDS011;60520;49.182;-0.348;2023-03-19T03:17:03;4.00;;;2.70;;
72493;SDS011;60520;49.182;-0.348;2023-03-19T03:19:31;5.90;;;2.92;;
72493;SDS011;60520;49.182;-0.348;2023-03-19T03:21:58;3.85;;;2.70;;
72493;SDS011;60520;49.182;-0.348;2023-03-19T03:24:25;4.20;;;2.80;;
72493;SDS011;60520;49.182;-0.348;2023-03-19T03:26:53;3.72;;;2.50;;
72493;SDS011;60520;49.182;-0.348;2023-03-19T03:29:20;3.83;;;2.70;;
72493;SDS011;60520;49.182;-0.348;2023-03-19T03:31:47;5.68;;;2.90;;
72493;SDS011;60520;49.182;-0.348;2023-03-19T03:34:15;4.10;;;2.50;;
72493;SDS011;60520;49.182;-0.348;2023-03-19T03:36:42;4.63;;;2.45;;
72493;SDS011;60520;49.182;-0.348;2023-03-19T03:39:11;4.97;;;2.70;;
72493;SDS011;60520;49.182;-0.348;2023-03-19T03:41:38;3.15;;;2.20;;
72493;SDS011;60520;49.182;-0.348;2023-03-19T03:44:05;4.60;;;2.58;;
72493;SDS011;60520;49.182;-0.348;2023-03-19T03:46:32;4.40;;;2.55;;
72493;SDS011;60520;49.182;-0.348;2023-03-19T03:48:59;4.03;;;2.72;;
72493;SDS011;60520;49.182;-0.348;2023-03-19T03:51:28;3.53;;;2.20;;
72493;SDS011;60520;49.182;-0.348;2023-03-19T03:53:55;4.90;;;2.88;;
72493;SDS011;60520;49.182;-0.348;2023-03-19T03:56:22;4.13;;;2.30;;
72493;SDS011;60520;49.182;-0.348;2023-03-19T03:58:50;3.10;;;2.38;;
72493;SDS011;60520;49.182;-0.348;2023-03-19T04:01:17;4.30;;;2.55;;
72493;SDS011;60520;49.182;-0.348;2023-03-19T04:03:44;4.30;;;2.60;;
72493;SDS011;60520;49.182;-0.348;2023-03-19T04:06:12;3.97;;;2.85;;
72493;SDS011;60520;49.182;-0.348;2023-03-19T04:08:41;3.63;;;2.35;;
72493;SDS011;60520;49.182;-0.348;2023-03-19T04:11:08;4.20;;;2.75;;
72493;SDS011;60520;49.182;-0.348;2023-03-19T04:13:36;4.75;;;2.40;;
72493;SDS011;60520;49.182;-0.348;2023-03-19T04:16:03;3.67;;;2.42;;
72493;SDS011;60520;49.182;-0.348;2023-03-19T04:18:30;5.07;;;2.20;;
72493;SDS011;60520;49.182;-0.348;2023-03-19T04:20:58;3.83;;;2.22;;
72493;SDS011;60520;49.182;-0.348;2023-03-19T04:23:25;4.18;;;2.33;;
72493;SDS011;60520;49.182;-0.348;2023-03-19T04:25:56;3.35;;;2.55;;
72493;SDS011;60520;49.182;-0.348;2023-03-19T04:28:23;3.22;;;2.15;;
72493;SDS011;60520;49.182;-0.348;2023-03-19T04:30:51;4.43;;;2.50;;
72493;SDS011;60520;49.182;-0.348;2023-03-19T04:33:18;3.55;;;2.40;;
72493;SDS011;60520;49.182;-0.348;2023-03-19T04:35:45;4.03;;;2.30;;
72493;SDS011;60520;49.182;-0.348;2023-03-19T04:38:14;3.95;;;2.25;;
72493;SDS011;60520;49.182;-0.348;2023-03-19T04:40:41;3.35;;;2.40;;
72493;SDS011;60520;49.182;-0.348;2023-03-19T04:43:09;3.00;;;2.17;;
72493;SDS011;60520;49.182;-0.348;2023-03-19T04:45:36;2.92;;;2.03;;
72493;SDS011;60520;49.182;-0.348;2023-03-19T04:48:04;3.75;;;2.50;;
72493;SDS011;60520;49.182;-0.348;2023-03-19T04:50:31;3.05;;;2.33;;
72493;SDS011;60520;49.182;-0.348;2023-03-19T04:52:58;3.55;;;2.28;;
72493;SDS011;60520;49.182;-0.348;2023-03-19T04:55:26;3.58;;;2.30;;
72493;SDS011;60520;49.182;-0.348;2023-03-19T04:57:53;3.17;;;2.20;;
72493;SDS011;60520;49.182;-0.348;2023-03-19T05:00:21;4.00;;;2.45;;
72493;SDS011;60520;49.182;-0.348;2023-03-19T05:02:49;3.65;;;2.05;;
72493;SDS011;60520;49.182;-0.348;2023-03-19T05:05:16;3.35;;;2.20;;
72493;SDS011;60520;49.182;-0.348;2023-03-19T05:07:43;3.60;;;2.03;;
72493;SDS011;60520;49.182;-0.348;2023-03-19T05:10:11;3.42;;;2.13;;
72493;SDS011;60520;49.182;-0.348;2023-03-19T05:12:38;3.78;;;2.13;;
72493;SDS011;60520;49.182;-0.348;2023-03-19T05:15:06;3.58;;;2.55;;
72493;SDS011;60520;49.182;-0.348;2023-03-19T05:17:34;3.70;;;2.40;;
72493;SDS011;60520;49.182;-0.348;2023-03-19T05:20:02;4.20;;;2.30;;
72493;SDS011;60520;49.182;-0.348;2023-03-19T05:22:29;3.10;;;1.85;;
72493;SDS011;60520;49.182;-0.348;2023-03-19T05:24:56;3.58;;;2.42;;
72493;SDS011;60520;49.182;-0.348;2023-03-19T05:27:24;2.92;;;1.90;;
72493;SDS011;60520;49.182;-0.348;2023-03-19T05:29:51;2.50;;;2.00;;
72493;SDS011;60520;49.182;-0.348;2023-03-19T05:32:18;2.85;;;2.10;;
72493;SDS011;60520;49.182;-0.348;2023-03-19T05:34:47;4.10;;;2.22;;
72493;SDS011;60520;49.182;-0.348;2023-03-19T05:37:14;2.65;;;1.90;;
72493;SDS011;60520;49.182;-0.348;2023-03-19T05:39:42;3.60;;;2.20;;
72493;SDS011;60520;49.182;-0.348;2023-03-19T05:42:09;2.70;;;2.00;;
72493;SDS011;60520;49.182;-0.348;2023-03-19T05:44:36;3.22;;;2.03;;
72493;SDS011;60520;49.182;-0.348;2023-03-19T05:47:03;3.20;;;2.13;;
72493;SDS011;60520;49.182;-0.348;2023-03-19T05:49:31;3.88;;;2.28;;
72493;SDS011;60520;49.182;-0.348;2023-03-19T05:51:59;2.88;;;1.85;;
72493;SDS011;60520;49.182;-0.348;2023-03-19T05:54:26;3.13;;;2.00;;
72493;SDS011;60520;49.182;-0.348;2023-03-19T05:56:53;3.03;;;1.90;;
72493;SDS011;60520;49.182;-0.348;2023-03-19T05:59:21;3.05;;;2.13;;
72493;SDS011;60520;49.182;-0.348;2023-03-19T06:01:48;3.67;;;2.38;;
72493;SDS011;60520;49.182;-0.348;2023-03-19T06:04:15;3.55;;;2.08;;
72493;SDS011;60520;49.182;-0.348;2023-03-19T06:06:42;3.08;;;1.92;;
72493;SDS011;60520;49.182;-0.348;2023-03-19T06:09:10;3.25;;;2.20;;
72493;SDS011;60520;49.182;-0.348;2023-03-19T06:11:37;3.47;;;2.10;;
72493;SDS011;60520;49.182;-0.348;2023-03-19T06:14:05;3.97;;;2.40;;
72493;SDS011;60520;49.182;-0.348;2023-03-19T06:16:32;3.22;;;2.03;;
72493;SDS011;60520;49.182;-0.348;2023-03-19T06:18:59;3.75;;;2.40;;
72493;SDS011;60520;49.182;-0.348;2023-03-19T06:21:26;3.33;;;1.85;;
72493;SDS011;60520;49.182;-0.348;2023-03-19T06:23:55;2.83;;;1.85;;
72493;SDS011;60520;49.182;-0.348;2023-03-19T06:26:24;3.30;;;2.00;;
72493;SDS011;60520;49.182;-0.348;2023-03-19T06:28:51;4.38;;;2.55;;
72493;SDS011;60520;49.182;-0.348;2023-03-19T06:31:18;2.92;;;1.92;;
72493;SDS011;60520;49.182;-0.348;2023-03-19T06:33:46;2.95;;;2.17;;
72493;SDS011;60520;49.182;-0.348;2023-03-19T06:36:14;3.13;;;2.20;;
72493;SDS011;60520;49.182;-0.348;2023-03-19T06:38:41;2.88;;;1.90;;
72493;SDS011;60520;49.182;-0.348;2023-03-19T06:41:08;3.08;;;2.00;;
72493;SDS011;60520;49.182;-0.348;2023-03-19T06:43:37;3.05;;;2.10;;
72493;SDS011;60520;49.182;-0.348;2023-03-19T06:46:06;2.75;;;2.00;;
72493;SDS011;60520;49.182;-0.348;2023-03-19T06:48:34;2.75;;;1.73;;
72493;SDS011;60520;49.182;-0.348;2023-03-19T06:51:01;3.83;;;2.10;;
72493;SDS011;60520;49.182;-0.348;2023-03-19T06:53:28;3.03;;;1.80;;
72493;SDS011;60520;49.182;-0.348;2023-03-19T06:55:55;3.70;;;2.03;;
72493;SDS011;60520;49.182;-0.348;2023-03-19T06:58:23;4.05;;;2.03;;
72493;SDS011;60520;49.182;-0.348;2023-03-19T07:00:52;4.18;;;1.98;;
72493;SDS011;60520;49.182;-0.348;2023-03-19T07:03:19;3.75;;;1.90;;
72493;SDS011;60520;49.182;-0.348;2023-03-19T07:05:47;2.28;;;1.70;;
72493;SDS011;60520;49.182;-0.348;2023-03-19T07:08:15;2.97;;;2.10;;
72493;SDS011;60520;49.182;-0.348;2023-03-19T07:10:42;3.33;;;1.98;;
72493;SDS011;60520;49.182;-0.348;2023-03-19T07:13:09;3.97;;;1.95;;
72493;SDS011;60520;49.182;-0.348;2023-03-19T07:15:36;3.15;;;2.13;;
72493;SDS011;60520;49.182;-0.348;2023-03-19T07:18:04;3.35;;;1.95;;
72493;SDS011;60520;49.182;-0.348;2023-03-19T07:20:31;3.63;;;1.80;;
72493;SDS011;60520;49.182;-0.348;2023-03-19T07:22:59;2.90;;;2.00;;
72493;SDS011;60520;49.182;-0.348;2023-03-19T07:25:26;3.13;;;1.80;;
72493;SDS011;60520;49.182;-0.348;2023-03-19T07:27:53;2.63;;;1.85;;
72493;SDS011;60520;49.182;-0.348;2023-03-19T07:30:20;3.63;;;2.10;;
72493;SDS011;60520;49.182;-0.348;2023-03-19T07:32:47;2.55;;;1.95;;
72493;SDS011;60520;49.182;-0.348;2023-03-19T07:35:16;2.75;;;1.80;;
72493;SDS011;60520;49.182;-0.348;2023-03-19T07:37:43;4.50;;;1.90;;
72493;SDS011;60520;49.182;-0.348;2023-03-19T07:40:10;3.63;;;2.03;;
72493;SDS011;60520;49.182;-0.348;2023-03-19T07:42:38;3.33;;;1.90;;
72493;SDS011;60520;49.182;-0.348;2023-03-19T07:45:05;3.33;;;2.25;;
72493;SDS011;60520;49.182;-0.348;2023-03-19T07:47:32;4.03;;;2.10;;
72493;SDS011;60520;49.182;-0.348;2023-03-19T07:49:59;2.85;;;1.75;;
72493;SDS011;60520;49.182;-0.348;2023-03-19T07:52:28;2.70;;;1.83;;
72493;SDS011;60520;49.182;-0.348;2023-03-19T07:54:55;2.75;;;1.73;;
72493;SDS011;60520;49.182;-0.348;2023-03-19T07:57:22;2.50;;;1.75;;
72493;SDS011;60520;49.182;-0.348;2023-03-19T07:59:50;2.45;;;1.63;;
72493;SDS011;60520;49.182;-0.348;2023-03-19T08:02:17;3.13;;;1.70;;
72493;SDS011;60520;49.182;-0.348;2023-03-19T08:04:44;3.47;;;1.95;;
72493;SDS011;60520;49.182;-0.348;2023-03-19T08:07:11;1.95;;;1.60;;
72493;SDS011;60520;49.182;-0.348;2023-03-19T08:09:41;2.75;;;1.67;;
72493;SDS011;60520;49.182;-0.348;2023-03-19T08:12:08;3.10;;;1.85;;
72493;SDS011;60520;49.182;-0.348;2023-03-19T08:14:35;2.88;;;1.73;;
72493;SDS011;60520;49.182;-0.348;2023-03-19T08:17:02;2.88;;;1.80;;
72493;SDS011;60520;49.182;-0.348;2023-03-19T08:19:29;2.75;;;1.80;;
72493;SDS011;60520;49.182;-0.348;2023-03-19T08:21:56;1.85;;;1.40;;
72493;SDS011;60520;49.182;-0.348;2023-03-19T08:24:23;3.08;;;1.88;;
72493;SDS011;60520;49.182;-0.348;2023-03-19T08:26:52;2.67;;;1.42;;
72493;SDS011;60520;49.182;-0.348;2023-03-19T08:29:19;3.03;;;1.95;;
72493;SDS011;60520;49.182;-0.348;2023-03-19T08:31:46;3.28;;;1.77;;
72493;SDS011;60520;49.182;-0.348;2023-03-19T08:34:13;2.58;;;1.70;;
72493;SDS011;60520;49.182;-0.348;2023-03-19T08:36:41;2.92;;;1.90;;
72493;SDS011;60520;49.182;-0.348;2023-03-19T08:39:08;2.58;;;1.52;;
72493;SDS011;60520;49.182;-0.348;2023-03-19T08:41:35;2.83;;;1.65;;
72493;SDS011;60520;49.182;-0.348;2023-03-19T08:44:03;2.42;;;1.80;;
72493;SDS011;60520;49.182;-0.348;2023-03-19T08:46:31;2.15;;;1.50;;
72493;SDS011;60520;49.182;-0.348;2023-03-19T08:48:58;4.05;;;1.95;;
72493;SDS011;60520;49.182;-0.348;2023-03-19T08:51:25;2.33;;;1.60;;
72493;SDS011;60520;49.182;-0.348;2023-03-19T08:53:55;3.35;;;1.67;;
72493;SDS011;60520;49.182;-0.348;2023-03-19T08:56:22;2.67;;;1.80;;
72493;SDS011;60520;49.182;-0.348;2023-03-19T08:58:49;2.55;;;1.48;;
72493;SDS011;60520;49.182;-0.348;2023-03-19T09:01:17;2.65;;;1.52;;
72493;SDS011;60520;49.182;-0.348;2023-03-19T09:03:44;3.47;;;1.52;;
72493;SDS011;60520;49.182;-0.348;2023-03-19T09:06:12;2.65;;;1.80;;
72493;SDS011;60520;49.182;-0.348;2023-03-19T09:08:39;2.60;;;1.70;;
72493;SDS011;60520;49.182;-0.348;2023-03-19T09:11:06;2.90;;;1.77;;
72493;SDS011;60520;49.182;-0.348;2023-03-19T09:13:35;2.40;;;1.67;;
72493;SDS011;60520;49.182;-0.348;2023-03-19T09:16:02;2.20;;;1.50;;
72493;SDS011;60520;49.182;-0.348;2023-03-19T09:18:31;2.30;;;1.50;;
72493;SDS011;60520;49.182;-0.348;2023-03-19T09:20:59;3.08;;;1.67;;
72493;SDS011;60520;49.182;-0.348;2023-03-19T09:23:26;2.42;;;1.50;;
72493;SDS011;60520;49.182;-0.348;2023-03-19T09:25:53;3.30;;;1.67;;
72493;SDS011;60520;49.182;-0.348;2023-03-19T09:28:20;2.92;;;1.73;;
72493;SDS011;60520;49.182;-0.348;2023-03-19T09:30:48;2.40;;;1.60;;
72493;SDS011;60520;49.182;-0.348;2023-03-19T09:33:16;2.15;;;1.40;;
72493;SDS011;60520;49.182;-0.348;2023-03-19T09:35:49;2.15;;;1.48;;
72493;SDS011;60520;49.182;-0.348;2023-03-19T09:38:16;2.75;;;1.65;;
72493;SDS011;60520;49.182;-0.348;2023-03-19T09:40:44;2.58;;;1.63;;
72493;SDS011;60520;49.182;-0.348;2023-03-19T09:45:57;1.98;;;1.55;;
72493;SDS011;60520;49.182;-0.348;2023-03-19T09:48:27;2.03;;;1.40;;
72493;SDS011;60520;49.182;-0.348;2023-03-19T09:50:57;2.35;;;1.52;;
72493;SDS011;60520;49.182;-0.348;2023-03-19T09:53:28;1.88;;;1.42;;
72493;SDS011;60520;49.182;-0.348;2023-03-19T09:55:59;2.38;;;1.60;;
72493;SDS011;60520;49.182;-0.348;2023-03-19T09:58:29;1.83;;;1.42;;
72493;SDS011;60520;49.182;-0.348;2023-03-19T10:00:57;2.55;;;1.50;;
72493;SDS011;60520;49.182;-0.348;2023-03-19T10:03:31;2.67;;;1.50;;
72493;SDS011;60520;49.182;-0.348;2023-03-19T10:06:05;2.45;;;1.58;;
72493;SDS011;60520;49.182;-0.348;2023-03-19T10:08:38;2.08;;;1.30;;
72493;SDS011;60520;49.182;-0.348;2023-03-19T10:11:16;1.63;;;1.40;;
72493;SDS011;60520;49.182;-0.348;2023-03-19T10:13:54;2.55;;;1.50;;
72493;SDS011;60520;49.182;-0.348;2023-03-19T10:16:23;2.60;;;1.60;;
72493;SDS011;60520;49.182;-0.348;2023-03-19T10:18:52;2.67;;;1.40;;
72493;SDS011;60520;49.182;-0.348;2023-03-19T10:21:23;2.08;;;1.45;;
72493;SDS011;60520;49.182;-0.348;2023-03-19T10:23:51;2.10;;;1.38;;
72493;SDS011;60520;49.182;-0.348;2023-03-19T10:26:20;2.60;;;1.50;;
72493;SDS011;60520;49.182;-0.348;2023-03-19T10:28:52;2.50;;;1.58;;
72493;SDS011;60520;49.182;-0.348;2023-03-19T10:31:24;2.10;;;1.35;;
72493;SDS011;60520;49.182;-0.348;2023-03-19T10:33:52;2.13;;;1.52;;
72493;SDS011;60520;49.182;-0.348;2023-03-19T10:36:26;2.95;;;1.60;;
72493;SDS011;60520;49.182;-0.348;2023-03-19T10:38:53;2.22;;;1.42;;
72493;SDS011;60520;49.182;-0.348;2023-03-19T10:41:23;2.90;;;1.50;;
72493;SDS011;60520;49.182;-0.348;2023-03-19T10:43:55;2.95;;;1.45;;
72493;SDS011;60520;49.182;-0.348;2023-03-19T10:46:22;4.50;;;1.67;;
72493;SDS011;60520;49.182;-0.348;2023-03-19T10:48:50;3.08;;;1.38;;
72493;SDS011;60520;49.182;-0.348;2023-03-19T10:51:18;2.33;;;1.40;;
72493;SDS011;60520;49.182;-0.348;2023-03-19T10:53:48;2.78;;;1.50;;
72493;SDS011;60520;49.182;-0.348;2023-03-19T10:56:18;3.75;;;1.60;;
72493;SDS011;60520;49.182;-0.348;2023-03-19T10:58:57;2.47;;;1.45;;
72493;SDS011;60520;49.182;-0.348;2023-03-19T11:01:28;3.17;;;1.40;;
72493;SDS011;60520;49.182;-0.348;2023-03-19T11:03:57;2.72;;;1.58;;
72493;SDS011;60520;49.182;-0.348;2023-03-19T11:06:25;2.25;;;1.40;;
72493;SDS011;60520;49.182;-0.348;2023-03-19T11:08:55;3.17;;;1.50;;
72493;SDS011;60520;49.182;-0.348;2023-03-19T11:11:26;3.88;;;1.65;;
72493;SDS011;60520;49.182;-0.348;2023-03-19T11:13:59;2.55;;;1.30;;
72493;SDS011;60520;49.182;-0.348;2023-03-19T11:16:31;3.25;;;1.42;;
72493;SDS011;60520;49.182;-0.348;2023-03-19T11:18:59;2.10;;;1.23;;
72493;SDS011;60520;49.182;-0.348;2023-03-19T11:21:27;2.95;;;1.50;;
72493;SDS011;60520;49.182;-0.348;2023-03-19T11:23:59;2.45;;;1.20;;
72493;SDS011;60520;49.182;-0.348;2023-03-19T11:26:27;2.55;;;1.40;;
72493;SDS011;60520;49.182;-0.348;2023-03-19T11:28:57;3.97;;;1.77;;
72493;SDS011;60520;49.182;-0.348;2023-03-19T11:31:29;2.47;;;1.40;;
72493;SDS011;60520;49.182;-0.348;2023-03-19T11:34:02;2.78;;;1.58;;
72493;SDS011;60520;49.182;-0.348;2023-03-19T11:36:36;2.28;;;1.40;;
72493;SDS011;60520;49.182;-0.348;2023-03-19T11:39:17;2.22;;;1.30;;
72493;SDS011;60520;49.182;-0.348;2023-03-19T11:41:49;2.47;;;1.50;;
72493;SDS011;60520;49.182;-0.348;2023-03-19T11:44:20;3.72;;;1.40;;
72493;SDS011;60520;49.182;-0.348;2023-03-19T11:46:50;2.95;;;1.42;;
72493;SDS011;60520;49.182;-0.348;2023-03-19T11:49:33;3.40;;;1.50;;
72493;SDS011;60520;49.182;-0.348;2023-03-19T11:52:05;2.70;;;1.42;;
72493;SDS011;60520;49.182;-0.348;2023-03-19T11:54:37;2.90;;;1.55;;
72493;SDS011;60520;49.182;-0.348;2023-03-19T11:57:10;3.05;;;1.23;;
72493;SDS011;60520;49.182;-0.348;2023-03-19T11:59:43;2.88;;;1.48;;
72493;SDS011;60520;49.182;-0.348;2023-03-19T12:02:35;3.63;;;1.70;;
72493;SDS011;60520;49.182;-0.348;2023-03-19T12:05:17;2.10;;;1.50;;
72493;SDS011;60520;49.182;-0.348;2023-03-19T12:07:49;1.60;;;1.30;;
72493;SDS011;60520;49.182;-0.348;2023-03-19T12:10:28;2.50;;;1.30;;
72493;SDS011;60520;49.182;-0.348;2023-03-19T12:12:57;3.20;;;1.50;;
72493;SDS011;60520;49.182;-0.348;2023-03-19T12:15:27;2.63;;;1.25;;
72493;SDS011;60520;49.182;-0.348;2023-03-19T12:17:58;2.08;;;1.38;;
72493;SDS011;60520;49.182;-0.348;2023-03-19T12:20:35;2.78;;;1.42;;
72493;SDS011;60520;49.182;-0.348;2023-03-19T12:23:05;2.70;;;1.42;;
72493;SDS011;60520;49.182;-0.348;2023-03-19T12:25:37;2.88;;;1.20;;
72493;SDS011;60520;49.182;-0.348;2023-03-19T12:28:09;1.92;;;1.33;;
72493;SDS011;60520;49.182;-0.348;2023-03-19T12:30:40;2.47;;;1.30;;
72493;SDS011;60520;49.182;-0.348;2023-03-19T12:33:09;2.47;;;1.40;;
72493;SDS011;60520;49.182;-0.348;2023-03-19T12:35:37;2.17;;;1.10;;
72493;SDS011;60520;49.182;-0.348;2023-03-19T12:38:08;2.40;;;1.40;;
72493;SDS011;60520;49.182;-0.348;2023-03-19T12:40:38;2.50;;;1.40;;
72493;SDS011;60520;49.182;-0.348;2023-03-19T12:43:11;2.20;;;1.20;;
72493;SDS011;60520;49.182;-0.348;2023-03-19T12:45:40;2.25;;;1.20;;
72493;SDS011;60520;49.182;-0.348;2023-03-19T12:48:09;2.92;;;1.48;;
72493;SDS011;60520;49.182;-0.348;2023-03-19T12:50:38;4.03;;;1.38;;
72493;SDS011;60520;49.182;-0.348;2023-03-19T12:53:06;3.47;;;1.27;;
72493;SDS011;60520;49.182;-0.348;2023-03-19T12:55:38;3.90;;;1.35;;
72493;SDS011;60520;49.182;-0.348;2023-03-19T12:58:07;2.85;;;1.40;;
72493;SDS011;60520;49.182;-0.348;2023-03-19T13:00:39;2.20;;;1.33;;
72493;SDS011;60520;49.182;-0.348;2023-03-19T13:03:11;3.45;;;1.35;;
72493;SDS011;60520;49.182;-0.348;2023-03-19T13:05:40;2.35;;;1.23;;
72493;SDS011;60520;49.182;-0.348;2023-03-19T13:08:10;1.90;;;1.25;;
72493;SDS011;60520;49.182;-0.348;2023-03-19T13:10:40;2.60;;;1.20;;
72493;SDS011;60520;49.182;-0.348;2023-03-19T13:13:11;2.05;;;1.33;;
72493;SDS011;60520;49.182;-0.348;2023-03-19T13:15:42;1.92;;;1.10;;
72493;SDS011;60520;49.182;-0.348;2023-03-19T13:18:14;2.83;;;1.40;;
72493;SDS011;60520;49.182;-0.348;2023-03-19T13:20:49;1.73;;;1.20;;
72493;SDS011;60520;49.182;-0.348;2023-03-19T13:23:23;2.20;;;1.20;;
72493;SDS011;60520;49.182;-0.348;2023-03-19T13:25:53;2.58;;;1.23;;
72493;SDS011;60520;49.182;-0.348;2023-03-19T13:28:27;2.88;;;1.20;;
72493;SDS011;60520;49.182;-0.348;2023-03-19T13:30:58;2.63;;;1.30;;
72493;SDS011;60520;49.182;-0.348;2023-03-19T13:33:25;2.47;;;1.40;;
72493;SDS011;60520;49.182;-0.348;2023-03-19T13:35:53;2.30;;;1.10;;
72493;SDS011;60520;49.182;-0.348;2023-03-19T13:38:23;2.15;;;1.45;;
72493;SDS011;60520;49.182;-0.348;2023-03-19T13:40:52;2.30;;;1.10;;
72493;SDS011;60520;49.182;-0.348;2023-03-19T13:43:21;1.80;;;1.13;;
72493;SDS011;60520;49.182;-0.348;2023-03-19T13:45:50;1.75;;;1.25;;
72493;SDS011;60520;49.182;-0.348;2023-03-19T13:48:34;2.50;;;1.20;;
72493;SDS011;60520;49.182;-0.348;2023-03-19T13:51:02;3.30;;;1.45;;
72493;SDS011;60520;49.182;-0.348;2023-03-19T13:53:34;2.03;;;1.20;;
72493;SDS011;60520;49.182;-0.348;2023-03-19T13:56:05;1.75;;;1.25;;
72493;SDS011;60520;49.182;-0.348;2023-03-19T13:58:45;2.28;;;1.20;;
72493;SDS011;60520;49.182;-0.348;2023-03-19T14:01:40;2.30;;;1.40;;
72493;SDS011;60520;49.182;-0.348;2023-03-19T14:04:15;2.85;;;1.30;;
72493;SDS011;60520;49.182;-0.348;2023-03-19T14:06:44;2.10;;;1.17;;
72493;SDS011;60520;49.182;-0.348;2023-03-19T14:09:26;2.65;;;1.38;;
72493;SDS011;60520;49.182;-0.348;2023-03-19T14:11:56;2.90;;;1.10;;
72493;SDS011;60520;49.182;-0.348;2023-03-19T14:14:37;2.28;;;1.23;;
72493;SDS011;60520;49.182;-0.348;2023-03-19T14:17:09;2.95;;;1.30;;
72493;SDS011;60520;49.182;-0.348;2023-03-19T14:19:39;2.55;;;1.27;;
72493;SDS011;60520;49.182;-0.348;2023-03-19T14:22:07;2.85;;;1.20;;
72493;SDS011;60520;49.182;-0.348;2023-03-19T14:24:36;2.45;;;1.30;;
72493;SDS011;60520;49.182;-0.348;2023-03-19T14:27:13;2.83;;;1.20;;
72493;SDS011;60520;49.182;-0.348;2023-03-19T14:29:41;2.28;;;1.20;;
72493;SDS011;60520;49.182;-0.348;2023-03-19T14:32:12;2.88;;;1.23;;
72493;SDS011;60520;49.182;-0.348;2023-03-19T14:34:42;2.47;;;1.30;;
72493;SDS011;60520;49.182;-0.348;2023-03-19T14:37:14;2.30;;;1.17;;
72493;SDS011;60520;49.182;-0.348;2023-03-19T14:39:44;3.67;;;1.70;;
72493;SDS011;60520;49.182;-0.348;2023-03-19T14:42:15;2.45;;;1.25;;
72493;SDS011;60520;49.182;-0.348;2023-03-19T14:47:45;2.47;;;1.30;;
72493;SDS011;60520;49.182;-0.348;2023-03-19T14:50:31;2.35;;;1.20;;